Time;durP1;ratioP1;P1;durP2;ratioP2;P2;SDS_P1;SDS_P2;PMS_P1;PMS_P2;Temp;Humidity;BMP_temperature;BMP_pressure;BME280_temperature;BME280_humidity;BME280_pressure;Samples;Min_cycle;Max_cycle;Signal;HPM_P1;HPM_P2
2022/06/23 00:01:31;;;;;;;7.28;3.58;;;;;;;;;;5069304;28;20225;-16
2022/06/23 00:03:59;;;;;;;8.73;3.67;;;;;;;;;;5067560;28;20233;-16
2022/06/23 00:06:35;;;;;;;6.63;3.55;;;;;;;;;;5058301;28;20324;-16
2022/06/23 00:09:02;;;;;;;10.70;3.75;;;;;;;;;;5069861;28;20714;-15
2022/06/23 00:11:31;;;;;;;8.68;3.80;;;;;;;;;;5070084;28;20791;-15
2022/06/23 00:14:07;;;;;;;10.27;3.83;;;;;;;;;;5069406;28;20225;-16
2022/06/23 00:16:34;;;;;;;7.93;3.72;;;;;;;;;;5070943;28;20233;-15
2022/06/23 00:19:02;;;;;;;7.18;4.00;;;;;;;;;;5063464;28;20301;-15
2022/06/23 00:21:30;;;;;;;7.72;3.35;;;;;;;;;;5056184;28;20236;-15
2022/06/23 00:23:59;;;;;;;7.57;3.45;;;;;;;;;;5068868;28;20237;-16
2022/06/23 00:26:27;;;;;;;6.18;3.78;;;;;;;;;;5071606;28;20229;-16
2022/06/23 00:28:57;;;;;;;5.95;3.58;;;;;;;;;;5072499;28;20248;-16
2022/06/23 00:31:25;;;;;;;7.63;3.58;;;;;;;;;;5080549;28;20286;-15
2022/06/23 00:33:53;;;;;;;9.85;3.72;;;;;;;;;;5067639;28;20325;-16
2022/06/23 00:36:26;;;;;;;6.13;3.42;;;;;;;;;;5056389;28;20631;-15
2022/06/23 00:38:53;;;;;;;9.93;3.45;;;;;;;;;;5071604;28;20605;-16
2022/06/23 00:41:22;;;;;;;7.95;3.90;;;;;;;;;;5069487;28;20240;-16
2022/06/23 00:43:49;;;;;;;5.75;3.45;;;;;;;;;;5061694;28;20241;-15
2022/06/23 00:46:18;;;;;;;7.07;3.08;;;;;;;;;;5090477;28;20235;-15
2022/06/23 00:48:47;;;;;;;7.13;3.55;;;;;;;;;;5079161;28;20233;-15
2022/06/23 00:51:15;;;;;;;6.97;3.78;;;;;;;;;;5083978;28;20233;-15
2022/06/23 00:53:45;;;;;;;5.05;3.38;;;;;;;;;;5090612;28;20232;-16
2022/06/23 00:56:16;;;;;;;7.05;3.00;;;;;;;;;;5070472;28;20278;-16
2022/06/23 00:58:45;;;;;;;5.45;3.25;;;;;;;;;;5072498;28;20241;-15
2022/06/23 01:01:14;;;;;;;7.82;3.05;;;;;;;;;;5085830;28;20229;-15
2022/06/23 01:03:45;;;;;;;5.10;3.17;;;;;;;;;;5088635;28;20825;-16
2022/06/23 01:06:13;;;;;;;7.13;3.70;;;;;;;;;;5080761;28;20294;-16
2022/06/23 01:08:42;;;;;;;6.95;3.83;;;;;;;;;;5077398;28;20311;-16
2022/06/23 01:11:11;;;;;;;4.30;3.13;;;;;;;;;;5070674;28;20624;-16
2022/06/23 01:13:40;;;;;;;7.85;3.42;;;;;;;;;;5068333;28;20233;-15
2022/06/23 01:16:08;;;;;;;4.47;3.17;;;;;;;;;;5078744;28;20741;-16
2022/06/23 01:18:36;;;;;;;5.03;3.05;;;;;;;;;;5089281;28;20271;-15
2022/06/23 01:21:07;;;;;;;8.30;3.47;;;;;;;;;;5064393;28;20238;-15
2022/06/23 01:23:47;;;;;;;6.18;3.85;;;;;;;;;;5079978;28;20240;-15
2022/06/23 01:26:24;;;;;;;9.88;3.53;;;;;;;;;;5080063;28;20236;-16
2022/06/23 01:28:57;;;;;;;4.68;2.95;;;;;;;;;;5070449;28;20229;-15
2022/06/23 01:31:25;;;;;;;5.22;3.53;;;;;;;;;;5076402;28;20531;-16
2022/06/23 01:33:53;;;;;;;6.90;3.30;;;;;;;;;;5073348;28;20229;-15
2022/06/23 01:36:21;;;;;;;6.70;3.33;;;;;;;;;;5083549;28;20232;-15
2022/06/23 01:38:52;;;;;;;7.07;3.45;;;;;;;;;;5078178;28;20689;-16
2022/06/23 01:41:20;;;;;;;8.90;3.53;;;;;;;;;;5079354;28;20233;-15
2022/06/23 01:43:48;;;;;;;6.07;3.15;;;;;;;;;;5091595;28;20232;-16
2022/06/23 01:46:18;;;;;;;6.40;3.40;;;;;;;;;;5075794;28;20233;-16
2022/06/23 01:48:52;;;;;;;7.50;4.30;;;;;;;;;;5071702;28;20233;-15
2022/06/23 01:51:20;;;;;;;7.28;3.75;;;;;;;;;;5083973;28;20232;-15
2022/06/23 01:53:48;;;;;;;6.35;3.72;;;;;;;;;;5074992;28;20233;-15
2022/06/23 01:56:18;;;;;;;5.78;4.03;;;;;;;;;;5082920;28;20266;-15
2022/06/23 01:58:48;;;;;;;6.15;3.65;;;;;;;;;;5092229;28;20239;-16
2022/06/23 02:01:18;;;;;;;5.53;4.05;;;;;;;;;;5073532;28;20230;-16
2022/06/23 02:03:46;;;;;;;5.57;3.78;;;;;;;;;;5085204;28;20321;-16
2022/06/23 02:06:14;;;;;;;6.45;4.00;;;;;;;;;;5075105;28;20616;-16
2022/06/23 02:08:42;;;;;;;6.90;3.90;;;;;;;;;;5086082;28;20236;-16
2022/06/23 02:11:14;;;;;;;9.23;4.30;;;;;;;;;;5084420;28;20699;-15
2022/06/23 02:13:42;;;;;;;7.00;4.10;;;;;;;;;;5091816;28;20233;-15
2022/06/23 02:16:11;;;;;;;13.27;4.00;;;;;;;;;;5076292;28;20251;-16
2022/06/23 02:18:44;;;;;;;6.05;3.95;;;;;;;;;;5088286;28;20240;-15
2022/06/23 02:21:17;;;;;;;6.43;3.88;;;;;;;;;;5139186;22;20232;-14
2022/06/23 02:23:46;;;;;;;6.47;3.92;;;;;;;;;;5111993;28;20236;-14
2022/06/23 02:26:14;;;;;;;7.60;3.92;;;;;;;;;;5109789;28;20235;-14
2022/06/23 02:28:43;;;;;;;6.63;4.03;;;;;;;;;;5095118;28;20231;-13
2022/06/23 02:31:13;;;;;;;7.07;3.88;;;;;;;;;;5107071;28;20226;-14
2022/06/23 02:33:43;;;;;;;7.45;4.07;;;;;;;;;;5097896;27;21099;-15
2022/06/23 02:36:15;;;;;;;4.97;3.20;;;;;;;;;;5111761;28;20228;-14
2022/06/23 02:38:45;;;;;;;6.47;3.40;;;;;;;;;;5110979;28;20240;-14
2022/06/23 02:41:13;;;;;;;5.97;3.78;;;;;;;;;;5109279;28;20236;-12
2022/06/23 02:43:42;;;;;;;6.18;3.95;;;;;;;;;;5106401;27;20239;-14
2022/06/23 02:46:23;;;;;;;5.18;3.47;;;;;;;;;;5108390;28;20230;-14
2022/06/23 02:49:14;;;;;;;5.53;3.83;;;;;;;;;;5109328;27;21145;-14
2022/06/23 02:51:49;;;;;;;6.97;3.67;;;;;;;;;;5097753;28;20267;-15
2022/06/23 02:54:24;;;;;;;6.30;3.22;;;;;;;;;;5110629;27;20666;-14
2022/06/23 02:56:59;;;;;;;10.40;4.03;;;;;;;;;;5109642;28;20902;-14
2022/06/23 02:59:29;;;;;;;7.00;3.95;;;;;;;;;;5111135;28;20243;-14
2022/06/23 03:01:57;;;;;;;7.88;3.72;;;;;;;;;;5097847;28;20707;-14
2022/06/23 03:04:29;;;;;;;5.72;3.70;;;;;;;;;;5101244;28;20616;-15
2022/06/23 03:06:58;;;;;;;5.63;3.55;;;;;;;;;;5100407;27;20244;-13
2022/06/23 03:09:28;;;;;;;8.70;3.83;;;;;;;;;;5100503;28;20992;-14
2022/06/23 03:11:56;;;;;;;6.47;3.50;;;;;;;;;;5110700;28;20231;-14
2022/06/23 03:14:35;;;;;;;6.20;3.50;;;;;;;;;;5111915;28;20236;-14
2022/06/23 03:17:04;;;;;;;5.85;3.83;;;;;;;;;;5105084;27;20228;-14
2022/06/23 03:19:35;;;;;;;5.15;3.65;;;;;;;;;;5111426;28;20239;-15
2022/06/23 03:22:04;;;;;;;6.75;4.00;;;;;;;;;;5097526;28;20240;-14
2022/06/23 03:24:33;;;;;;;7.40;4.03;;;;;;;;;;5103112;28;20232;-15
2022/06/23 03:27:01;;;;;;;8.60;3.45;;;;;;;;;;5104987;28;20239;-14
2022/06/23 03:29:31;;;;;;;5.68;3.67;;;;;;;;;;5097650;27;21018;-14
2022/06/23 03:32:02;;;;;;;6.78;3.25;;;;;;;;;;5097391;28;20604;-14
2022/06/23 03:34:30;;;;;;;4.70;2.83;;;;;;;;;;5108889;28;20231;-14
2022/06/23 03:36:59;;;;;;;9.98;2.92;;;;;;;;;;5105815;28;20853;-15
2022/06/23 03:42:14;;;;;;;9.68;3.47;;;;;;;;;;5102725;28;20224;-14
2022/06/23 03:44:43;;;;;;;9.07;3.15;;;;;;;;;;5109431;28;20268;-13
2022/06/23 03:47:13;;;;;;;8.88;3.05;;;;;;;;;;5111030;28;20626;-15
2022/06/23 03:49:42;;;;;;;6.00;2.92;;;;;;;;;;5109585;27;20230;-15
2022/06/23 03:52:16;;;;;;;4.70;3.13;;;;;;;;;;5102097;28;21096;-13
2022/06/23 03:54:46;;;;;;;4.72;2.80;;;;;;;;;;5110941;28;20238;-13
2022/06/23 03:57:15;;;;;;;7.40;2.80;;;;;;;;;;5110556;28;20234;-14
2022/06/23 03:59:43;;;;;;;6.18;2.88;;;;;;;;;;5111091;28;20323;-15
2022/06/23 04:02:12;;;;;;;4.40;2.83;;;;;;;;;;5111028;27;20262;-15
2022/06/23 04:04:44;;;;;;;5.70;2.90;;;;;;;;;;5114763;28;20978;-14
2022/06/23 04:07:32;;;;;;;4.18;2.88;;;;;;;;;;5101354;28;20233;-11
2022/06/23 04:09:59;;;;;;;6.63;2.85;;;;;;;;;;5109019;28;20231;-14
2022/06/23 04:12:34;;;;;;;4.47;3.05;;;;;;;;;;5105814;27;20733;-14
2022/06/23 04:15:05;;;;;;;5.47;2.85;;;;;;;;;;5113317;28;21052;-14
2022/06/23 04:17:34;;;;;;;5.03;2.83;;;;;;;;;;5103868;28;20234;-15
2022/06/23 04:20:03;;;;;;;7.70;3.08;;;;;;;;;;5104238;28;20234;-11
2022/06/23 04:22:33;;;;;;;5.03;2.53;;;;;;;;;;5102722;27;20268;-14
2022/06/23 04:25:01;;;;;;;8.68;2.80;;;;;;;;;;5108189;28;20242;-15
2022/06/23 04:27:30;;;;;;;4.43;2.55;;;;;;;;;;5113942;28;20235;-14
2022/06/23 04:29:58;;;;;;;5.72;2.83;;;;;;;;;;5112882;28;20287;-13
2022/06/23 04:32:26;;;;;;;7.60;3.15;;;;;;;;;;5107415;28;20225;-14
2022/06/23 04:34:55;;;;;;;4.90;2.70;;;;;;;;;;5106405;27;20236;-15
2022/06/23 04:37:35;;;;;;;5.95;2.83;;;;;;;;;;5109122;28;20224;-15
2022/06/23 04:40:25;;;;;;;4.88;2.88;;;;;;;;;;5111735;28;20696;-14
2022/06/23 04:42:57;;;;;;;4.50;2.83;;;;;;;;;;5110394;28;20232;-14
2022/06/23 04:45:30;;;;;;;4.32;2.50;;;;;;;;;;5108248;27;20920;-14
2022/06/23 04:47:58;;;;;;;4.75;3.20;;;;;;;;;;5113773;28;20287;-14
2022/06/23 04:50:33;;;;;;;8.43;3.08;;;;;;;;;;5108712;28;20595;-14
2022/06/23 04:53:02;;;;;;;6.28;2.90;;;;;;;;;;5110775;28;20228;-14
2022/06/23 04:55:31;;;;;;;7.63;3.17;;;;;;;;;;5106417;28;20237;-14
2022/06/23 04:58:00;;;;;;;6.40;2.85;;;;;;;;;;5113569;28;20327;-14
2022/06/23 05:00:28;;;;;;;4.90;2.95;;;;;;;;;;5107900;28;20224;-14
2022/06/23 05:02:56;;;;;;;5.50;2.83;;;;;;;;;;5094827;28;20258;-15
2022/06/23 05:05:24;;;;;;;6.43;2.70;;;;;;;;;;5109196;28;20235;-15
2022/06/23 05:07:52;;;;;;;6.00;2.70;;;;;;;;;;5105795;28;20231;-14
2022/06/23 05:10:21;;;;;;;8.57;3.47;;;;;;;;;;5102579;28;20733;-12
2022/06/23 05:12:49;;;;;;;8.68;3.25;;;;;;;;;;5098563;28;20228;-14
2022/06/23 05:15:17;;;;;;;5.35;2.70;;;;;;;;;;5094696;28;20243;-15
2022/06/23 05:17:48;;;;;;;6.05;2.83;;;;;;;;;;5104165;27;20228;-15
2022/06/23 05:20:18;;;;;;;7.35;3.13;;;;;;;;;;5104054;28;21038;-13
2022/06/23 05:22:46;;;;;;;7.43;3.28;;;;;;;;;;5105822;28;20242;-15
2022/06/23 05:25:31;;;;;;;6.28;3.08;;;;;;;;;;5100387;28;20238;-14
2022/06/23 05:27:58;;;;;;;7.57;2.92;;;;;;;;;;5102498;28;20238;-15
2022/06/23 05:30:27;;;;;;;6.38;3.15;;;;;;;;;;5101399;27;20235;-14
2022/06/23 05:32:55;;;;;;;7.78;2.75;;;;;;;;;;5106283;28;20225;-14
2022/06/23 05:35:23;;;;;;;4.63;3.03;;;;;;;;;;5096695;28;20262;-14
2022/06/23 05:37:52;;;;;;;9.13;3.78;;;;;;;;;;5106649;28;20239;-14
2022/06/23 05:40:21;;;;;;;8.45;4.70;;;;;;;;;;5099551;28;20274;-14
2022/06/23 05:42:51;;;;;;;9.40;5.68;;;;;;;;;;5103910;28;20330;-15
2022/06/23 05:45:20;;;;;;;10.25;5.43;;;;;;;;;;5100919;27;20744;-14
2022/06/23 05:47:47;;;;;;;10.45;4.22;;;;;;;;;;5103646;28;20224;-14
2022/06/23 05:50:16;;;;;;;11.85;4.93;;;;;;;;;;5109792;27;20239;-14
2022/06/23 05:52:44;;;;;;;13.10;5.40;;;;;;;;;;5102918;28;20263;-14
2022/06/23 05:55:14;;;;;;;12.75;5.53;;;;;;;;;;5103058;28;20236;-15
2022/06/23 05:57:42;;;;;;;12.77;5.35;;;;;;;;;;5105314;28;20224;-15
2022/06/23 06:00:15;;;;;;;15.52;5.97;;;;;;;;;;5093318;28;20229;-14
2022/06/23 06:02:43;;;;;;;11.35;4.95;;;;;;;;;;5101055;27;20284;-15
2022/06/23 06:05:12;;;;;;;13.38;4.88;;;;;;;;;;5095773;28;20236;-14
2022/06/23 06:07:40;;;;;;;15.55;5.00;;;;;;;;;;5109543;28;20709;-15
2022/06/23 06:10:12;;;;;;;14.50;4.65;;;;;;;;;;5103688;28;20239;-14
2022/06/23 06:12:41;;;;;;;13.95;4.80;;;;;;;;;;5098311;27;20315;-15
2022/06/23 06:15:09;;;;;;;11.40;5.25;;;;;;;;;;5104321;28;20232;-15
2022/06/23 06:17:38;;;;;;;12.60;5.72;;;;;;;;;;5097168;28;20229;-14
2022/06/23 06:20:06;;;;;;;9.38;4.95;;;;;;;;;;5092259;28;20733;-14
2022/06/23 06:22:41;;;;;;;10.67;5.70;;;;;;;;;;5091043;28;20420;-13
2022/06/23 06:25:08;;;;;;;11.57;5.60;;;;;;;;;;5106826;27;20803;-15
2022/06/23 06:27:36;;;;;;;11.35;4.70;;;;;;;;;;5091707;28;20225;-14
2022/06/23 06:30:03;;;;;;;8.40;4.22;;;;;;;;;;5098595;28;20315;-14
2022/06/23 06:32:31;;;;;;;10.65;5.05;;;;;;;;;;5094902;28;20239;-14
2022/06/23 06:35:03;;;;;;;18.52;4.32;;;;;;;;;;5091355;27;20229;-15
2022/06/23 06:37:36;;;;;;;11.60;4.00;;;;;;;;;;5107802;28;20289;-14
2022/06/23 06:40:04;;;;;;;10.35;4.88;;;;;;;;;;5109751;28;20231;-14
2022/06/23 06:42:32;;;;;;;18.13;5.05;;;;;;;;;;5092450;28;20245;-14
2022/06/23 06:45:00;;;;;;;8.07;4.97;;;;;;;;;;5103313;28;20238;-15
2022/06/23 06:47:29;;;;;;;13.23;5.03;;;;;;;;;;5109947;27;20248;-14
2022/06/23 06:49:58;;;;;;;9.30;4.20;;;;;;;;;;5111196;28;20243;-14
2022/06/23 06:52:27;;;;;;;9.77;4.60;;;;;;;;;;5107507;28;20236;-14
2022/06/23 06:54:56;;;;;;;8.38;3.83;;;;;;;;;;5104949;28;20216;-14
2022/06/23 06:57:27;;;;;;;12.10;4.78;;;;;;;;;;5100835;27;20236;-15
2022/06/23 06:59:57;;;;;;;8.43;4.30;;;;;;;;;;5109381;28;20274;-14
2022/06/23 07:02:27;;;;;;;14.38;4.43;;;;;;;;;;5094056;28;20232;-14
2022/06/23 07:04:56;;;;;;;10.68;4.57;;;;;;;;;;5092005;28;20235;-14
2022/06/23 07:07:24;;;;;;;11.57;5.20;;;;;;;;;;5104147;27;20236;-14
2022/06/23 07:09:57;;;;;;;6.60;4.85;;;;;;;;;;5111791;28;20240;-14
2022/06/23 07:12:25;;;;;;;7.95;4.85;;;;;;;;;;5099247;28;20231;-13
2022/06/23 07:14:54;;;;;;;7.45;4.88;;;;;;;;;;5109082;28;20369;-13
2022/06/23 07:17:23;;;;;;;10.80;4.47;;;;;;;;;;5103242;27;20244;-13
2022/06/23 07:19:52;;;;;;;5.30;4.00;;;;;;;;;;5103446;27;20232;-13
2022/06/23 07:22:21;;;;;;;12.63;4.80;;;;;;;;;;5105238;27;20245;-14
2022/06/23 07:24:49;;;;;;;8.93;4.18;;;;;;;;;;5108474;27;20230;-14
2022/06/23 07:27:20;;;;;;;9.88;4.55;;;;;;;;;;5098674;27;20240;-16
2022/06/23 07:29:49;;;;;;;10.45;4.82;;;;;;;;;;5113749;27;21097;-14
2022/06/23 07:32:17;;;;;;;8.65;4.50;;;;;;;;;;5100898;27;20239;-13
2022/06/23 07:34:45;;;;;;;10.88;4.80;;;;;;;;;;5112750;27;20235;-14
2022/06/23 07:37:15;;;;;;;8.95;4.25;;;;;;;;;;5115723;27;20234;-13
2022/06/23 07:39:42;;;;;;;8.00;4.00;;;;;;;;;;5110034;27;20242;-14
2022/06/23 07:42:11;;;;;;;13.98;4.70;;;;;;;;;;5110809;27;20389;-13
2022/06/23 07:44:41;;;;;;;7.38;3.72;;;;;;;;;;5113659;27;20238;-15
2022/06/23 07:47:08;;;;;;;8.45;4.25;;;;;;;;;;5110043;27;20274;-14
2022/06/23 07:49:36;;;;;;;11.48;4.68;;;;;;;;;;5106931;27;20267;-14
2022/06/23 07:52:03;;;;;;;10.43;4.93;;;;;;;;;;5104937;27;20225;-14
2022/06/23 07:54:35;;;;;;;12.18;4.82;;;;;;;;;;5109577;27;20238;-15
2022/06/23 07:57:02;;;;;;;10.05;4.97;;;;;;;;;;5097873;27;20388;-12
2022/06/23 07:59:34;;;;;;;10.68;4.10;;;;;;;;;;5108520;27;20886;-12
2022/06/23 08:02:04;;;;;;;11.65;4.30;;;;;;;;;;5105257;27;20233;-11
2022/06/23 08:04:32;;;;;;;9.30;4.07;;;;;;;;;;5116649;27;20238;-14
2022/06/23 08:07:01;;;;;;;10.13;3.45;;;;;;;;;;5098649;27;20330;-15
2022/06/23 08:09:29;;;;;;;6.78;3.35;;;;;;;;;;5109491;27;20232;-14
2022/06/23 08:14:42;;;;;;;11.07;3.80;;;;;;;;;;5100863;27;20414;-15
2022/06/23 08:17:11;;;;;;;7.75;3.65;;;;;;;;;;5117365;27;20232;-15
2022/06/23 08:19:39;;;;;;;10.93;3.45;;;;;;;;;;5100781;27;20315;-13
2022/06/23 08:22:08;;;;;;;7.43;3.47;;;;;;;;;;5098533;27;20420;-15
2022/06/23 08:24:36;;;;;;;9.85;3.33;;;;;;;;;;5103531;27;20235;-15
2022/06/23 08:27:04;;;;;;;8.23;3.38;;;;;;;;;;5101715;27;20286;-14
2022/06/23 08:29:33;;;;;;;7.00;3.80;;;;;;;;;;5111795;27;20230;-14
2022/06/23 08:32:00;;;;;;;7.13;3.63;;;;;;;;;;5096785;27;20255;-15
2022/06/23 08:34:31;;;;;;;10.47;3.73;;;;;;;;;;5093779;27;20428;-14
2022/06/23 08:36:59;;;;;;;8.25;3.10;;;;;;;;;;5092136;27;20238;-15
2022/06/23 08:39:29;;;;;;;9.90;2.92;;;;;;;;;;5092311;27;20236;-14
2022/06/23 08:41:57;;;;;;;11.63;3.08;;;;;;;;;;5100752;27;20232;-13
2022/06/23 08:44:33;;;;;;;6.60;3.20;;;;;;;;;;5099835;27;20236;-12
2022/06/23 08:47:04;;;;;;;12.18;3.83;;;;;;;;;;5107576;27;20367;-14
2022/06/23 08:49:33;;;;;;;6.97;3.60;;;;;;;;;;5095836;27;20241;-14
2022/06/23 08:52:02;;;;;;;12.48;2.92;;;;;;;;;;5102690;27;20232;-13
2022/06/23 08:54:31;;;;;;;5.72;3.47;;;;;;;;;;5104472;27;20349;-14
2022/06/23 08:57:03;;;;;;;7.28;3.20;;;;;;;;;;5121563;27;20325;-14
2022/06/23 08:59:32;;;;;;;6.88;3.38;;;;;;;;;;5109929;27;20232;-13
2022/06/23 09:02:01;;;;;;;7.95;3.38;;;;;;;;;;5105894;27;20235;-15
2022/06/23 09:04:34;;;;;;;7.68;3.17;;;;;;;;;;5113577;27;20234;-14
2022/06/23 09:07:03;;;;;;;5.38;3.33;;;;;;;;;;5112851;27;20237;-12
2022/06/23 09:09:33;;;;;;;7.82;3.42;;;;;;;;;;5113956;27;20232;-14
2022/06/23 09:12:03;;;;;;;6.47;3.33;;;;;;;;;;5112291;27;20224;-14
2022/06/23 09:15:03;;;;;;;14.13;3.80;;;;;;;;;;5108415;27;20237;-15
2022/06/23 09:17:35;;;;;;;10.27;3.60;;;;;;;;;;5062674;28;20237;-16
2022/06/23 09:20:10;;;;;;;6.10;3.55;;;;;;;;;;5057711;28;20234;-13
2022/06/23 09:22:42;;;;;;;8.95;3.70;;;;;;;;;;5086562;28;20723;-15
2022/06/23 09:25:13;;;;;;;7.90;4.35;;;;;;;;;;5098280;28;20236;-15
2022/06/23 09:27:44;;;;;;;7.32;3.97;;;;;;;;;;5106312;28;20238;-16
2022/06/23 09:30:13;;;;;;;13.77;4.05;;;;;;;;;;5096604;27;20424;-14
2022/06/23 09:32:44;;;;;;;10.82;4.10;;;;;;;;;;5098826;27;20446;-16
2022/06/23 09:35:32;;;;;;;9.18;4.40;;;;;;;;;;5095755;28;20237;-15
2022/06/23 09:38:12;;;;;;;8.52;4.65;;;;;;;;;;5100973;28;20236;-15
2022/06/23 09:40:42;;;;;;;9.38;4.43;;;;;;;;;;5105207;28;20238;-14
2022/06/23 09:43:15;;;;;;;8.48;4.50;;;;;;;;;;5099967;27;20246;-16
2022/06/23 09:46:04;;;;;;;8.13;4.40;;;;;;;;;;5101003;28;20599;-14
2022/06/23 09:48:35;;;;;;;8.77;5.07;;;;;;;;;;5097028;28;20236;-15
2022/06/23 09:51:06;;;;;;;11.20;4.93;;;;;;;;;;5105033;28;20936;-13
2022/06/23 09:53:42;;;;;;;9.43;4.93;;;;;;;;;;5099915;28;20752;-14
2022/06/23 09:56:17;;;;;;;13.57;5.13;;;;;;;;;;5106534;28;20236;-15
2022/06/23 09:59:03;;;;;;;9.18;4.90;;;;;;;;;;5105919;28;20239;-13
2022/06/23 10:01:33;;;;;;;7.72;5.15;;;;;;;;;;5097181;28;20231;-16
2022/06/23 10:04:06;;;;;;;8.90;4.93;;;;;;;;;;5101530;27;20239;-14
2022/06/23 10:06:52;;;;;;;11.65;5.05;;;;;;;;;;5095340;28;20240;-13
2022/06/23 10:09:24;;;;;;;10.18;4.82;;;;;;;;;;5102429;28;20307;-15
2022/06/23 10:12:03;;;;;;;9.40;5.18;;;;;;;;;;5097532;27;20878;-15
2022/06/23 10:14:35;;;;;;;7.32;4.80;;;;;;;;;;5098909;27;20915;-15
2022/06/23 10:17:19;;;;;;;12.48;5.78;;;;;;;;;;5095649;28;20233;-14
2022/06/23 10:19:50;;;;;;;8.25;5.05;;;;;;;;;;5100131;28;20596;-15
2022/06/23 10:22:22;;;;;;;7.22;4.80;;;;;;;;;;5097432;27;20237;-14
2022/06/23 10:24:55;;;;;;;5.95;5.07;;;;;;;;;;5105745;27;20236;-15
2022/06/23 10:27:26;;;;;;;10.10;5.80;;;;;;;;;;5100985;27;20251;-16
2022/06/23 10:29:58;;;;;;;8.30;5.53;;;;;;;;;;5107995;27;20352;-14
2022/06/23 10:32:30;;;;;;;8.98;5.60;;;;;;;;;;5111118;27;20808;-15
2022/06/23 10:35:05;;;;;;;10.35;5.53;;;;;;;;;;5103607;27;20611;-14
2022/06/23 10:37:40;;;;;;;9.95;5.53;;;;;;;;;;5113900;27;20716;-14
2022/06/23 10:40:28;;;;;;;8.57;5.22;;;;;;;;;;5108241;27;20246;-14
2022/06/23 10:43:23;;;;;;;12.02;5.60;;;;;;;;;;5102051;27;20430;-14
2022/06/23 10:45:52;;;;;;;16.80;6.15;;;;;;;;;;5092109;27;20243;-13
2022/06/23 10:48:29;;;;;;;11.20;5.70;;;;;;;;;;5103338;27;20241;-13
2022/06/23 10:50:58;;;;;;;13.50;5.82;;;;;;;;;;5101521;27;20228;-15
2022/06/23 10:53:33;;;;;;;6.93;5.43;;;;;;;;;;5101000;27;20236;-15
2022/06/23 10:56:07;;;;;;;10.77;5.72;;;;;;;;;;5090478;28;20247;-14
2022/06/23 10:58:52;;;;;;;6.10;5.47;;;;;;;;;;5096366;27;20246;-15
2022/06/23 11:01:31;;;;;;;17.15;6.03;;;;;;;;;;5089475;28;20228;-15
2022/06/23 11:04:01;;;;;;;12.30;5.72;;;;;;;;;;5104771;27;20232;-14
2022/06/23 11:06:44;;;;;;;10.10;6.45;;;;;;;;;;5113090;27;20257;-14
2022/06/23 11:09:25;;;;;;;7.80;5.28;;;;;;;;;;5083958;27;21113;-14
2022/06/23 11:12:07;;;;;;;10.73;5.65;;;;;;;;;;5114198;27;20318;-15
2022/06/23 11:14:39;;;;;;;8.05;5.50;;;;;;;;;;5099317;27;20268;-14
2022/06/23 11:17:10;;;;;;;8.90;5.70;;;;;;;;;;5110176;28;20238;-14
2022/06/23 11:19:42;;;;;;;11.68;6.15;;;;;;;;;;5093397;28;20758;-15
2022/06/23 11:22:14;;;;;;;10.18;6.05;;;;;;;;;;5096992;27;20243;-14
2022/06/23 11:24:43;;;;;;;11.32;6.30;;;;;;;;;;5100097;28;20228;-16
2022/06/23 11:27:20;;;;;;;8.77;6.07;;;;;;;;;;5104209;28;20258;-15
2022/06/23 11:30:01;;;;;;;11.52;6.30;;;;;;;;;;5100516;28;20240;-16
2022/06/23 11:32:32;;;;;;;12.98;6.00;;;;;;;;;;5107680;27;20232;-13
2022/06/23 11:35:06;;;;;;;10.40;6.07;;;;;;;;;;5099404;28;20947;-13
2022/06/23 11:37:39;;;;;;;8.85;6.25;;;;;;;;;;5095359;28;20241;-14
2022/06/23 11:40:12;;;;;;;9.70;6.20;;;;;;;;;;5101143;28;20709;-16
2022/06/23 11:42:53;;;;;;;9.00;5.70;;;;;;;;;;5097540;27;20230;-15
2022/06/23 11:45:29;;;;;;;10.98;6.28;;;;;;;;;;5102519;28;20232;-15
2022/06/23 11:48:01;;;;;;;8.70;5.35;;;;;;;;;;5097938;28;20317;-13
2022/06/23 11:50:30;;;;;;;10.00;6.57;;;;;;;;;;5098604;28;21197;-15
2022/06/23 11:53:01;;;;;;;7.40;5.65;;;;;;;;;;5097292;27;20274;-15
2022/06/23 11:55:33;;;;;;;7.05;5.55;;;;;;;;;;5101565;28;20218;-15
2022/06/23 11:58:07;;;;;;;10.50;5.90;;;;;;;;;;5092108;27;20728;-16
2022/06/23 12:00:38;;;;;;;8.88;5.60;;;;;;;;;;5094076;28;20231;-15
2022/06/23 12:03:13;;;;;;;8.30;5.93;;;;;;;;;;5110516;27;20220;-14
2022/06/23 12:05:42;;;;;;;7.43;5.25;;;;;;;;;;5103854;28;20327;-15
2022/06/23 12:08:26;;;;;;;6.13;5.50;;;;;;;;;;5101510;28;20224;-15
2022/06/23 12:10:53;;;;;;;9.70;5.90;;;;;;;;;;5093060;28;20220;-14
2022/06/23 12:13:21;;;;;;;9.18;5.50;;;;;;;;;;5091457;28;20228;-15
2022/06/23 12:15:49;;;;;;;6.47;5.25;;;;;;;;;;5100480;28;20224;-14
2022/06/23 12:18:19;;;;;;;6.70;5.22;;;;;;;;;;5106979;28;20327;-14
2022/06/23 12:20:47;;;;;;;13.68;5.68;;;;;;;;;;5099626;28;20220;-15
2022/06/23 12:23:16;;;;;;;9.05;5.82;;;;;;;;;;5114889;28;20239;-15
2022/06/23 12:25:46;;;;;;;6.03;5.38;;;;;;;;;;5114455;27;20236;-15
2022/06/23 12:28:17;;;;;;;7.45;5.32;;;;;;;;;;5115445;28;20235;-15
2022/06/23 12:30:45;;;;;;;6.80;5.40;;;;;;;;;;5112856;28;20303;-15
2022/06/23 12:33:14;;;;;;;8.32;5.28;;;;;;;;;;5114223;28;20220;-14
2022/06/23 12:35:44;;;;;;;7.53;5.28;;;;;;;;;;5113173;28;20231;-14
2022/06/23 12:38:12;;;;;;;7.85;5.18;;;;;;;;;;5097328;27;20229;-15
2022/06/23 12:40:42;;;;;;;6.50;4.90;;;;;;;;;;5094269;28;20231;-15
2022/06/23 12:43:11;;;;;;;6.30;5.30;;;;;;;;;;5093715;28;20221;-14
2022/06/23 12:45:42;;;;;;;5.40;4.90;;;;;;;;;;5098474;28;20291;-14
2022/06/23 12:48:15;;;;;;;9.40;5.60;;;;;;;;;;5093391;27;20739;-14
2022/06/23 12:50:47;;;;;;;5.63;4.65;;;;;;;;;;5100583;28;20236;-15
2022/06/23 12:53:19;;;;;;;6.82;5.00;;;;;;;;;;5114120;28;20270;-15
2022/06/23 12:55:51;;;;;;;7.70;4.93;;;;;;;;;;5097236;28;20733;-15
2022/06/23 12:58:21;;;;;;;5.60;4.85;;;;;;;;;;5094625;27;20297;-14
2022/06/23 13:00:52;;;;;;;6.32;4.97;;;;;;;;;;5110649;28;20238;-14
2022/06/23 13:03:21;;;;;;;5.88;4.70;;;;;;;;;;5113968;28;20240;-16
2022/06/23 13:05:50;;;;;;;6.05;4.43;;;;;;;;;;5113005;28;20232;-16
2022/06/23 13:08:19;;;;;;;6.88;4.90;;;;;;;;;;5112019;28;20302;-15
2022/06/23 13:10:47;;;;;;;6.05;4.88;;;;;;;;;;5112509;27;20894;-13
2022/06/23 13:13:17;;;;;;;5.25;4.55;;;;;;;;;;5113664;28;20228;-14
2022/06/23 13:15:45;;;;;;;10.55;5.00;;;;;;;;;;5113600;28;20232;-13
2022/06/23 13:18:15;;;;;;;6.15;4.32;;;;;;;;;;5113719;28;20714;-16
2022/06/23 13:20:45;;;;;;;5.75;4.53;;;;;;;;;;5112028;27;20231;-15
2022/06/23 13:23:14;;;;;;;5.60;4.53;;;;;;;;;;5113645;28;20220;-15
2022/06/23 13:25:43;;;;;;;6.82;4.43;;;;;;;;;;5105820;28;20236;-15
2022/06/23 13:28:10;;;;;;;6.80;4.93;;;;;;;;;;5092892;28;20235;-13
2022/06/23 13:30:42;;;;;;;7.70;4.95;;;;;;;;;;5097744;28;20331;-15
2022/06/23 13:33:11;;;;;;;5.25;4.75;;;;;;;;;;5095390;27;20259;-16
2022/06/23 13:35:39;;;;;;;5.43;4.88;;;;;;;;;;5093235;28;20216;-14
2022/06/23 13:38:11;;;;;;;5.85;4.40;;;;;;;;;;5092562;28;20216;-16
2022/06/23 13:40:41;;;;;;;9.70;4.70;;;;;;;;;;5093185;28;20229;-15
2022/06/23 13:43:11;;;;;;;5.55;4.40;;;;;;;;;;5092507;27;20312;-15
2022/06/23 13:45:39;;;;;;;6.32;4.80;;;;;;;;;;5099212;28;20622;-15
2022/06/23 13:48:11;;;;;;;6.82;4.38;;;;;;;;;;5113223;28;20667;-14
2022/06/23 13:50:40;;;;;;;6.07;4.68;;;;;;;;;;5111538;28;20232;-15
2022/06/23 13:53:09;;;;;;;6.45;4.65;;;;;;;;;;5112435;28;20718;-14
2022/06/23 13:55:41;;;;;;;6.07;4.20;;;;;;;;;;5098509;28;20216;-15
2022/06/23 13:58:11;;;;;;;7.15;4.88;;;;;;;;;;5112876;28;20243;-13
2022/06/23 14:00:40;;;;;;;8.32;5.03;;;;;;;;;;5110173;28;20236;-15
2022/06/23 14:03:07;;;;;;;6.53;4.32;;;;;;;;;;5092564;28;20695;-15
2022/06/23 14:05:38;;;;;;;6.10;4.38;;;;;;;;;;5092492;27;20236;-15
2022/06/23 14:08:08;;;;;;;7.55;4.60;;;;;;;;;;5092367;28;20327;-16
2022/06/23 14:10:37;;;;;;;7.45;4.45;;;;;;;;;;5092313;28;20229;-14
2022/06/23 14:13:12;;;;;;;5.95;4.50;;;;;;;;;;5092359;28;21126;-16
2022/06/23 14:15:41;;;;;;;4.50;4.10;;;;;;;;;;5092799;27;20228;-14
2022/06/23 14:18:11;;;;;;;7.35;4.13;;;;;;;;;;5092227;28;20668;-15
2022/06/23 14:20:40;;;;;;;9.43;4.43;;;;;;;;;;5091504;28;20221;-15
2022/06/23 14:23:08;;;;;;;5.28;4.03;;;;;;;;;;5091952;28;20225;-13
2022/06/23 14:25:37;;;;;;;5.28;4.30;;;;;;;;;;5092641;28;20221;-15
2022/06/23 14:28:05;;;;;;;7.78;4.70;;;;;;;;;;5108330;27;20281;-16
2022/06/23 14:30:39;;;;;;;10.38;4.72;;;;;;;;;;5110240;28;20232;-16
2022/06/23 14:33:07;;;;;;;5.07;3.95;;;;;;;;;;5112364;28;20235;-15
2022/06/23 14:35:36;;;;;;;5.10;4.53;;;;;;;;;;5104945;28;20235;-15
2022/06/23 14:38:05;;;;;;;6.28;4.53;;;;;;;;;;5091549;27;20232;-14
2022/06/23 14:40:35;;;;;;;8.20;4.80;;;;;;;;;;5092156;28;20288;-15
2022/06/23 14:43:20;;;;;;;7.50;4.57;;;;;;;;;;5101023;28;20239;-16
2022/06/23 14:45:51;;;;;;;6.47;4.63;;;;;;;;;;5111469;28;20234;-15
2022/06/23 14:48:39;;;;;;;8.70;4.25;;;;;;;;;;5111473;27;20220;-15
2022/06/23 14:51:07;;;;;;;6.45;4.18;;;;;;;;;;5102987;28;20705;-16
2022/06/23 14:53:36;;;;;;;8.15;4.68;;;;;;;;;;5111925;28;20724;-15
2022/06/23 14:56:07;;;;;;;7.32;4.35;;;;;;;;;;5111814;28;20216;-16
2022/06/23 14:58:36;;;;;;;9.85;4.78;;;;;;;;;;5112026;28;20255;-14
2022/06/23 15:01:06;;;;;;;11.43;4.57;;;;;;;;;;5098714;27;20955;-14
2022/06/23 15:03:36;;;;;;;4.88;4.38;;;;;;;;;;5091251;28;20256;-15
2022/06/23 15:06:09;;;;;;;8.45;4.18;;;;;;;;;;5100997;28;20851;-15
2022/06/23 15:08:40;;;;;;;7.68;4.40;;;;;;;;;;5100674;28;20229;-16